Time;durP1;ratioP1;P1;durP2;ratioP2;P2;SDS_P1;SDS_P2;PMS_P1;PMS_P2;Temp;Humidity;BMP_temperature;BMP_pressure;BME280_temperature;BME280_humidity;BME280_pressure;Samples;Min_cycle;Max_cycle;Signal;HPM_P1;HPM_P2
2023/07/06 00:03:11;;;;;;;2.70;2.50;;;20.30;68.00;;;;;;10555264;28;20209;-83
2023/07/06 00:08:17;;;;;;;3.53;3.10;;;20.40;69.40;;;;;;10565458;28;20213;-81
2023/07/06 00:13:20;;;;;;;2.77;2.57;;;20.40;69.10;;;;;;10538611;28;20225;-83
2023/07/06 00:18:22;;;;;;;2.60;2.47;;;20.40;68.60;;;;;;10564725;28;20295;-81
2023/07/06 00:23:25;;;;;;;3.00;2.80;;;20.30;69.70;;;;;;10569111;28;20192;-83
2023/07/06 00:28:28;;;;;;;4.93;3.17;;;20.30;69.90;;;;;;10554591;28;20699;-83
2023/07/06 00:33:31;;;;;;;3.00;2.80;;;20.30;69.40;;;;;;10565534;28;20218;-83
2023/07/06 00:38:36;;;;;;;5.23;3.10;;;20.20;70.20;;;;;;10538714;28;20220;-82
2023/07/06 00:43:50;;;;;;;2.97;2.77;;;20.10;70.40;;;;;;10549531;28;20231;-83
2023/07/06 00:48:54;;;;;;;3.40;2.77;;;20.10;71.30;;;;;;10528418;28;20308;-83
2023/07/06 00:54:02;;;;;;;3.20;2.87;;;20.10;70.60;;;;;;10515199;28;20239;-81
2023/07/06 00:59:07;;;;;;;2.87;2.67;;;20.10;71.30;;;;;;10534115;28;20319;-81
2023/07/06 01:04:11;;;;;;;2.93;2.37;;;20.10;71.10;;;;;;10532552;28;20205;-84
2023/07/06 01:09:17;;;;;;;2.80;2.60;;;20.00;70.70;;;;;;10556674;28;20769;-83
2023/07/06 01:14:19;;;;;;;4.20;2.83;;;20.00;70.80;;;;;;10505658;28;20308;-82
2023/07/06 01:19:52;;;;;;;2.33;2.13;;;19.90;71.40;;;;;;10508368;28;20689;-82
2023/07/06 01:25:16;;;;;;;2.77;2.57;;;19.80;70.50;;;;;;10505746;28;20225;-83
2023/07/06 01:30:54;;;;;;;3.83;2.93;;;19.80;71.20;;;;;;10486678;28;20537;-82
2023/07/06 01:36:05;;;;;;;2.87;2.63;;;19.70;71.60;;;;;;10472983;28;20244;-83
2023/07/06 01:41:10;;;;;;;3.40;3.10;;;19.70;72.00;;;;;;10523233;28;20740;-83
2023/07/06 01:46:12;;;;;;;2.70;2.50;;;19.70;72.20;;;;;;10521125;28;20217;-83
2023/07/06 01:51:24;;;;;;;3.10;2.73;;;19.70;71.20;;;;;;10551003;28;20976;-83
2023/07/06 01:56:30;;;;;;;3.00;2.80;;;19.70;71.80;;;;;;10517816;28;20228;-81
2023/07/06 02:01:38;;;;;;;3.40;3.00;;;19.60;72.70;;;;;;10521736;28;20227;-81
2023/07/06 02:06:43;;;;;;;3.27;3.07;;;19.60;73.00;;;;;;10509800;28;20239;-82
2023/07/06 02:11:46;;;;;;;3.10;2.90;;;19.50;72.30;;;;;;10519031;28;20271;-83
2023/07/06 02:16:50;;;;;;;2.77;2.57;;;19.40;72.40;;;;;;10513701;28;20247;-83
2023/07/06 02:21:54;;;;;;;3.60;3.30;;;19.30;72.00;;;;;;10527751;28;20755;-83
2023/07/06 02:26:56;;;;;;;3.10;2.90;;;19.20;72.10;;;;;;10498670;28;20752;-83
2023/07/06 02:31:58;;;;;;;3.07;2.87;;;19.10;72.80;;;;;;10525377;28;20259;-81
2023/07/06 02:37:02;;;;;;;3.00;2.80;;;19.10;73.00;;;;;;10520458;28;20247;-82
2023/07/06 02:42:05;;;;;;;3.20;3.00;;;19.00;72.70;;;;;;10508951;28;20219;-83
2023/07/06 02:47:08;;;;;;;3.07;2.87;;;19.00;73.40;;;;;;10500370;28;20647;-83
2023/07/06 02:52:11;;;;;;;2.90;2.57;;;19.00;73.80;;;;;;10524130;28;20189;-81
2023/07/06 02:57:13;;;;;;;2.93;2.73;;;18.90;73.50;;;;;;10531237;28;20217;-83
2023/07/06 03:02:16;;;;;;;3.00;2.80;;;18.80;73.70;;;;;;10504898;28;20702;-82
2023/07/06 03:07:20;;;;;;;3.63;3.33;;;18.90;74.30;;;;;;10509443;28;20723;-82
2023/07/06 03:12:23;;;;;;;3.43;3.13;;;18.90;73.80;;;;;;10523989;28;20254;-83
2023/07/06 03:17:26;;;;;;;4.50;3.40;;;18.90;73.40;;;;;;10521889;28;20303;-83
2023/07/06 03:22:31;;;;;;;3.70;3.40;;;18.80;74.10;;;;;;10554638;28;20311;-83
2023/07/06 03:27:33;;;;;;;3.43;3.10;;;18.70;73.50;;;;;;10513870;28;20204;-83
2023/07/06 03:32:37;;;;;;;3.23;2.90;;;18.70;73.20;;;;;;10512142;28;20201;-83
2023/07/06 03:37:42;;;;;;;3.93;3.63;;;18.60;74.50;;;;;;10535881;28;20263;-82
2023/07/06 03:42:47;;;;;;;3.50;3.30;;;18.50;74.20;;;;;;10549075;28;20211;-83
2023/07/06 03:47:50;;;;;;;4.33;3.90;;;18.50;74.90;;;;;;10529251;28;20219;-83
2023/07/06 03:52:58;;;;;;;3.03;2.83;;;18.50;74.90;;;;;;10540072;28;20197;-83
2023/07/06 03:58:01;;;;;;;3.10;2.90;;;18.50;74.30;;;;;;10542112;28;20204;-83
2023/07/06 04:03:04;;;;;;;3.10;2.90;;;18.50;74.50;;;;;;10518981;28;20532;-83
2023/07/06 04:08:09;;;;;;;3.00;2.80;;;18.40;74.30;;;;;;10535874;28;20587;-83
2023/07/06 04:13:14;;;;;;;3.50;3.20;;;18.40;74.70;;;;;;10551403;28;20255;-83
2023/07/06 04:18:16;;;;;;;3.27;3.07;;;18.30;75.00;;;;;;10547153;28;20220;-83
2023/07/06 04:23:20;;;;;;;3.73;3.40;;;18.30;75.30;;;;;;10567714;28;20257;-83
2023/07/06 04:28:22;;;;;;;3.53;3.23;;;18.40;75.70;;;;;;10550189;28;20216;-80
2023/07/06 04:33:24;;;;;;;3.10;2.83;;;18.40;75.20;;;;;;10565672;28;20224;-82
2023/07/06 04:38:30;;;;;;;3.43;3.23;;;18.40;75.20;;;;;;10556806;28;20224;-82
2023/07/06 04:43:32;;;;;;;3.30;3.00;;;18.40;75.40;;;;;;10564410;28;20193;-80
2023/07/06 04:48:34;;;;;;;4.07;3.20;;;18.40;76.10;;;;;;10558858;28;20246;-82
2023/07/06 04:53:37;;;;;;;3.20;3.00;;;18.40;75.70;;;;;;10544037;28;20415;-84
2023/07/06 04:58:44;;;;;;;4.70;4.40;;;18.40;75.10;;;;;;10545551;28;20281;-83
2023/07/06 05:03:46;;;;;;;3.60;3.40;;;18.40;76.10;;;;;;10571384;28;20189;-83
2023/07/06 05:08:52;;;;;;;10.30;9.70;;;18.40;76.50;;;;;;10546299;28;20224;-85
2023/07/06 05:13:54;;;;;;;10.27;9.60;;;18.50;92.80;;;;;;10545779;28;20224;-83
2023/07/06 05:18:57;;;;;;;6.73;6.33;;;18.00;95.70;;;;;;10539747;22;1111395;-78
2023/07/06 05:24:00;;;;;;;7.60;7.10;;;17.50;99.10;;;;;;10498566;28;20278;-79
2023/07/06 05:29:02;;;;;;;8.10;7.53;;;17.10;99.90;;;;;;10522064;28;20228;-78
2023/07/06 05:34:04;;;;;;;7.47;6.70;;;16.90;99.90;;;;;;10497454;28;20213;-78
2023/07/06 05:39:08;;;;;;;6.30;5.87;;;16.90;99.90;;;;;;10512431;28;20650;-79
2023/07/06 05:44:10;;;;;;;6.37;5.87;;;17.00;99.90;;;;;;10502188;28;20201;-79
2023/07/06 05:49:12;;;;;;;7.80;7.30;;;17.00;99.90;;;;;;10512003;28;20220;-78
2023/07/06 05:54:16;;;;;;;7.63;7.13;;;17.10;99.90;;;;;;10512302;28;20287;-79
2023/07/06 05:59:19;;;;;;;6.63;6.13;;;17.30;99.90;;;;;;10494599;28;20231;-79
2023/07/06 06:04:21;;;;;;;8.83;8.23;;;17.40;99.90;;;;;;10509420;28;20217;-79
2023/07/06 06:09:26;;;;;;;9.17;8.57;;;17.60;99.90;;;;;;10497093;28;20224;-78
2023/07/06 06:14:29;;;;;;;9.30;8.60;;;17.70;99.90;;;;;;10491040;28;20695;-78
2023/07/06 06:19:37;;;;;;;8.50;7.80;;;17.90;99.90;;;;;;10514933;28;20744;-78
2023/07/06 06:24:40;;;;;;;9.20;8.40;;;18.10;99.90;;;;;;10520050;28;20200;-78
2023/07/06 06:29:43;;;;;;;7.53;7.03;;;18.20;99.90;;;;;;10518221;28;20249;-78
2023/07/06 06:34:45;;;;;;;9.40;8.80;;;18.40;99.90;;;;;;10507293;28;20217;-79
2023/07/06 06:39:49;;;;;;;8.10;7.60;;;18.50;99.90;;;;;;10505746;28;20220;-78
2023/07/06 06:44:51;;;;;;;7.70;7.30;;;18.80;99.90;;;;;;10486090;28;20251;-78
2023/07/06 06:49:53;;;;;;;8.27;7.67;;;19.10;99.90;;;;;;10521559;28;20228;-78
2023/07/06 06:54:57;;;;;;;7.10;6.60;;;19.40;99.90;;;;;;10495311;28;20221;-78
2023/07/06 06:59:59;;;;;;;6.73;6.13;;;19.60;99.90;;;;;;10505065;28;20220;-79
2023/07/06 07:05:01;;;;;;;6.17;5.67;;;19.90;99.90;;;;;;10506147;28;20212;-79
2023/07/06 07:10:09;;;;;;;5.10;4.77;;;20.20;99.90;;;;;;10521397;28;20671;-79
2023/07/06 07:15:14;;;;;;;7.63;4.27;;;20.50;99.90;;;;;;10525520;28;20227;-79
2023/07/06 07:20:16;;;;;;;10.47;4.43;;;20.80;99.90;;;;;;10518558;28;20771;-79
2023/07/06 07:25:19;;;;;;;5.97;3.20;;;21.10;99.90;;;;;;10523386;28;20196;-78
2023/07/06 07:30:21;;;;;;;3.00;2.80;;;21.50;99.90;;;;;;10490624;28;20224;-78
2023/07/06 07:35:26;;;;;;;3.93;2.93;;;22.00;99.90;;;;;;10519433;28;20240;-79
2023/07/06 07:40:30;;;;;;;2.77;2.57;;;22.50;99.90;;;;;;10499876;28;20217;-79
2023/07/06 07:45:32;;;;;;;4.37;2.80;;;22.90;99.90;;;;;;10515806;28;20621;-78
2023/07/06 07:50:35;;;;;;;5.70;2.80;;;23.40;99.90;;;;;;10519877;28;20231;-80
2023/07/06 07:55:41;;;;;;;5.63;2.13;;;24.00;99.90;;;;;;10518782;28;20225;-80
2023/07/06 08:00:48;;;;;;;7.40;3.00;;;24.60;98.10;;;;;;10521890;28;20231;-80
2023/07/06 08:05:52;;;;;;;2.70;2.37;;;25.20;97.20;;;;;;10501077;28;20283;-80
2023/07/06 08:11:00;;;;;;;10.53;2.60;;;25.70;92.50;;;;;;10498301;28;20267;-80
2023/07/06 08:16:04;;;;;;;2.40;2.17;;;26.10;87.40;;;;;;10497051;28;20221;-80
2023/07/06 08:21:06;;;;;;;2.73;2.17;;;26.50;88.50;;;;;;10510966;28;20264;-81
2023/07/06 08:26:10;;;;;;;2.50;2.10;;;26.90;85.20;;;;;;10488302;28;20872;-81
2023/07/06 08:31:13;;;;;;;4.80;2.47;;;27.30;81.90;;;;;;10524000;28;20224;-80
2023/07/06 08:36:18;;;;;;;4.10;3.07;;;27.70;80.70;;;;;;10522352;28;20259;-80
2023/07/06 08:41:32;;;;;;;2.63;2.37;;;28.00;73.30;;;;;;10515113;28;20726;-80
2023/07/06 08:46:38;;;;;;;3.33;2.27;;;28.20;73.10;;;;;;10494748;28;20197;-80
2023/07/06 08:51:40;;;;;;;2.20;2.00;;;28.50;74.80;;;;;;10504374;28;20229;-80
2023/07/06 08:56:47;;;;;;;7.90;3.47;;;28.70;67.50;;;;;;10514629;28;20278;-80
2023/07/06 09:01:52;;;;;;;3.20;3.00;;;28.80;62.90;;;;;;10499680;28;20268;-81
2023/07/06 09:06:57;;;;;;;2.20;2.10;;;28.90;63.40;;;;;;10468560;28;20232;-81
2023/07/06 09:12:16;;;;;;;6.00;2.77;;;29.20;62.80;;;;;;10522673;28;20224;-81
2023/07/06 09:17:20;;;;;;;3.13;2.83;;;29.00;61.50;;;;;;10519551;28;20229;-80
2023/07/06 09:22:23;;;;;;;3.00;2.80;;;28.90;62.90;;;;;;10497132;28;20287;-81
2023/07/06 09:27:27;;;;;;;3.50;3.20;;;29.30;58.20;;;;;;10526305;28;20189;-81
2023/07/06 09:32:32;;;;;;;2.90;2.63;;;29.60;56.00;;;;;;10494223;28;20221;-81
2023/07/06 09:37:44;;;;;;;3.03;2.40;;;29.90;57.90;;;;;;10509365;28;20241;-81
2023/07/06 09:42:49;;;;;;;4.27;2.73;;;30.00;56.80;;;;;;10512302;28;20270;-80
2023/07/06 09:47:55;;;;;;;5.57;2.17;;;29.80;56.60;;;;;;10483910;28;20205;-81
2023/07/06 09:52:58;;;;;;;3.13;2.87;;;29.70;55.60;;;;;;10513270;28;20703;-80
2023/07/06 09:58:03;;;;;;;2.17;2.07;;;29.40;54.60;;;;;;10508727;28;20899;-80
2023/07/06 10:03:13;;;;;;;6.27;2.80;;;28.70;57.60;;;;;;10508834;28;20193;-80
2023/07/06 10:08:21;;;;;;;6.03;3.00;;;28.00;57.90;;;;;;10492036;28;20275;-80
2023/07/06 10:13:36;;;;;;;3.10;2.60;;;27.50;60.30;;;;;;10497450;28;20258;-80
2023/07/06 10:18:42;;;;;;;3.70;2.80;;;29.30;57.40;;;;;;10515139;28;20224;-80
2023/07/06 10:23:54;;;;;;;4.73;2.80;;;31.10;54.20;;;;;;10514323;28;20300;-81
2023/07/06 10:29:03;;;;;;;2.63;2.43;;;32.20;52.30;;;;;;10510937;28;20638;-80
2023/07/06 10:34:10;;;;;;;3.50;3.20;;;31.70;51.30;;;;;;10513251;28;20232;-80
2023/07/06 10:39:34;;;;;;;3.90;2.70;;;30.50;49.90;;;;;;10512172;28;20217;-80
2023/07/06 10:44:51;;;;;;;2.67;2.47;;;29.50;51.80;;;;;;10493770;28;20251;-80
2023/07/06 10:50:26;;;;;;;3.80;2.70;;;28.50;54.10;;;;;;10515143;28;20307;-79
2023/07/06 10:55:35;;;;;;;2.90;2.70;;;27.90;55.90;;;;;;10482419;28;20224;-80
2023/07/06 11:00:44;;;;;;;4.03;2.80;;;27.50;55.90;;;;;;10494253;28;20330;-79
2023/07/06 11:05:55;;;;;;;4.50;3.03;;;27.20;56.20;;;;;;10513149;28;20205;-79
2023/07/06 11:11:02;;;;;;;2.90;2.70;;;27.10;56.80;;;;;;10521094;28;20217;-80
2023/07/06 11:16:06;;;;;;;4.23;2.83;;;27.00;57.20;;;;;;10530447;28;20338;-80
2023/07/06 11:21:24;;;;;;;2.80;2.60;;;26.80;57.40;;;;;;10495171;22;20240;-82
2023/07/06 11:26:37;;;;;;;2.40;2.30;;;26.60;57.10;;;;;;10450611;28;20512;-82
2023/07/06 11:31:54;;;;;;;4.60;3.10;;;26.50;55.50;;;;;;10458163;28;20241;-83
2023/07/06 11:37:04;;;;;;;2.90;2.70;;;26.40;53.70;;;;;;10439868;28;20217;-83
2023/07/06 11:42:25;;;;;;;2.90;2.63;;;26.20;55.60;;;;;;10416801;28;20225;-83
2023/07/06 11:47:48;;;;;;;3.00;2.70;;;26.20;55.70;;;;;;10450547;28;20212;-82
2023/07/06 11:53:09;;;;;;;3.30;3.00;;;26.00;59.20;;;;;;10444484;28;20309;-82
2023/07/06 11:58:28;;;;;;;3.23;2.93;;;25.90;56.90;;;;;;10444909;28;20232;-84
2023/07/06 12:03:32;;;;;;;2.80;2.60;;;25.90;56.80;;;;;;10463437;28;20487;-81
2023/07/06 12:08:36;;;;;;;2.83;2.60;;;25.80;58.30;;;;;;10447117;28;20298;-83
2023/07/06 12:13:41;;;;;;;3.73;2.80;;;25.70;58.40;;;;;;10446704;28;20214;-83
2023/07/06 12:18:46;;;;;;;3.90;2.47;;;25.60;56.80;;;;;;10444227;28;20230;-83
2023/07/06 12:23:49;;;;;;;6.37;2.80;;;25.60;57.80;;;;;;10475059;28;20212;-82
2023/07/06 12:28:51;;;;;;;3.03;2.73;;;25.50;56.80;;;;;;10486018;28;20253;-83
2023/07/06 12:33:56;;;;;;;3.30;2.90;;;25.40;56.00;;;;;;10492705;28;20210;-83
2023/07/06 12:39:02;;;;;;;4.80;2.70;;;25.30;59.20;;;;;;10485522;28;20237;-83
2023/07/06 12:44:17;;;;;;;3.97;3.23;;;25.30;55.60;;;;;;10481382;28;20215;-83
2023/07/06 12:49:22;;;;;;;2.90;2.60;;;25.30;54.90;;;;;;10484129;28;20206;-82
2023/07/06 12:54:26;;;;;;;3.30;2.90;;;25.20;56.90;;;;;;10466174;28;20197;-84
2023/07/06 12:59:33;;;;;;;3.43;2.37;;;25.20;60.40;;;;;;10457827;28;20267;-81
2023/07/06 13:04:45;;;;;;;2.63;2.43;;;25.20;60.60;;;;;;10488272;28;20212;-83
2023/07/06 13:09:49;;;;;;;2.90;2.70;;;25.20;57.20;;;;;;10487771;28;20242;-83
2023/07/06 13:14:52;;;;;;;3.47;2.53;;;25.30;57.90;;;;;;10486696;28;20699;-83
2023/07/06 13:19:57;;;;;;;2.20;2.10;;;25.30;57.90;;;;;;10481180;28;20218;-82
2023/07/06 13:24:59;;;;;;;2.73;2.53;;;25.20;60.10;;;;;;10467163;28;20202;-83
2023/07/06 13:30:01;;;;;;;3.63;3.00;;;25.10;60.30;;;;;;10447657;28;20757;-83
2023/07/06 13:35:06;;;;;;;2.90;2.70;;;25.10;57.30;;;;;;10447471;28;20220;-81
2023/07/06 13:40:13;;;;;;;2.43;2.33;;;25.20;57.00;;;;;;10466235;28;20249;-83
2023/07/06 13:45:17;;;;;;;3.20;2.90;;;25.30;56.90;;;;;;10467267;28;20189;-83
2023/07/06 13:50:21;;;;;;;2.77;2.57;;;25.40;56.50;;;;;;10447455;28;20253;-82
2023/07/06 13:55:28;;;;;;;2.63;2.40;;;25.30;57.00;;;;;;10446141;28;20237;-83
2023/07/06 14:00:31;;;;;;;3.63;2.67;;;25.20;56.20;;;;;;10464552;28;20241;-83
2023/07/06 14:05:35;;;;;;;3.80;2.60;;;25.20;56.20;;;;;;10447354;28;20297;-84
2023/07/06 14:10:38;;;;;;;3.17;2.87;;;25.30;55.90;;;;;;10446244;28;20229;-83
2023/07/06 14:15:41;;;;;;;6.13;3.17;;;25.10;56.50;;;;;;10465656;28;20226;-83
2023/07/06 14:20:46;;;;;;;3.83;2.50;;;25.10;56.00;;;;;;10446360;28;20237;-84
2023/07/06 14:25:48;;;;;;;4.70;2.90;;;25.10;56.70;;;;;;10464876;28;20586;-83
2023/07/06 14:30:50;;;;;;;6.33;3.07;;;25.20;56.40;;;;;;10449509;28;20214;-83
2023/07/06 14:35:54;;;;;;;3.70;3.30;;;25.10;56.10;;;;;;10449144;28;20217;-83
2023/07/06 14:41:00;;;;;;;5.10;2.70;;;25.20;55.60;;;;;;10450902;28;20230;-81
2023/07/06 14:46:03;;;;;;;2.80;2.60;;;25.10;54.80;;;;;;10467600;28;20233;-84
2023/07/06 14:51:08;;;;;;;3.00;2.80;;;25.10;59.20;;;;;;10472227;28;20694;-83
2023/07/06 14:56:10;;;;;;;3.07;2.80;;;25.00;58.50;;;;;;10451544;28;20629;-84
2023/07/06 15:01:12;;;;;;;2.83;2.63;;;24.90;55.60;;;;;;10454230;28;20217;-84
2023/07/06 15:06:17;;;;;;;3.37;3.10;;;24.80;58.80;;;;;;10471715;28;20270;-81
2023/07/06 15:11:19;;;;;;;3.60;2.90;;;24.80;59.10;;;;;;10470586;28;20229;-83
2023/07/06 15:16:21;;;;;;;2.97;2.50;;;24.80;56.10;;;;;;10451103;28;20222;-82
2023/07/06 15:21:25;;;;;;;2.70;2.50;;;24.90;55.90;;;;;;10466263;28;20230;-83
2023/07/06 15:26:27;;;;;;;2.60;2.40;;;24.90;56.70;;;;;;10443665;28;20230;-83
2023/07/06 15:31:29;;;;;;;3.57;3.27;;;25.00;55.90;;;;;;10451761;28;20221;-83
2023/07/06 15:36:33;;;;;;;8.07;3.03;;;25.10;54.40;;;;;;10468002;28;20652;-82
2023/07/06 15:41:35;;;;;;;3.93;3.40;;;25.00;54.90;;;;;;10423586;28;20627;-83
2023/07/06 15:46:37;;;;;;;4.30;2.80;;;25.00;55.30;;;;;;10467685;28;20201;-83
2023/07/06 15:51:41;;;;;;;3.67;2.40;;;25.00;54.30;;;;;;10468736;28;20230;-80
2023/07/06 15:56:43;;;;;;;3.03;2.80;;;25.10;54.20;;;;;;10465296;28;20246;-81
2023/07/06 16:01:45;;;;;;;2.87;2.67;;;25.30;55.10;;;;;;10451053;28;20209;-83
2023/07/06 16:06:48;;;;;;;2.77;2.57;;;25.40;54.00;;;;;;10451350;28;20209;-83
2023/07/06 16:11:50;;;;;;;4.57;2.80;;;25.40;53.60;;;;;;10470173;28;20221;-82
2023/07/06 16:16:53;;;;;;;3.50;3.20;;;25.30;53.30;;;;;;10468139;28;20281;-83
2023/07/06 16:21:56;;;;;;;4.40;3.00;;;25.30;53.60;;;;;;10471832;28;20614;-80
2023/07/06 16:26:58;;;;;;;3.10;2.90;;;25.40;54.00;;;;;;10475607;28;20200;-84
2023/07/06 16:32:01;;;;;;;3.20;3.00;;;25.40;54.90;;;;;;10432412;28;20217;-83
2023/07/06 16:37:05;;;;;;;2.67;2.40;;;25.40;54.40;;;;;;10465483;28;20268;-83
2023/07/06 16:42:08;;;;;;;3.50;2.87;;;25.30;53.10;;;;;;10467015;28;20226;-83
2023/07/06 16:47:10;;;;;;;2.90;2.80;;;25.30;55.30;;;;;;10447978;28;20201;-84
2023/07/06 16:52:14;;;;;;;6.20;3.53;;;25.10;56.60;;;;;;10449923;28;20313;-83
2023/07/06 16:57:16;;;;;;;3.27;3.00;;;25.00;56.70;;;;;;10464915;28;20222;-83
2023/07/06 17:02:18;;;;;;;4.97;3.87;;;25.00;55.10;;;;;;10449236;28;20218;-83
2023/07/06 17:07:22;;;;;;;3.20;2.90;;;25.00;53.70;;;;;;10448370;28;20389;-83
2023/07/06 17:12:24;;;;;;;3.63;3.33;;;25.00;54.40;;;;;;10461688;28;20743;-82
2023/07/06 17:17:26;;;;;;;3.00;2.77;;;25.00;54.50;;;;;;10461823;28;20226;-83
2023/07/06 17:22:29;;;;;;;3.10;2.90;;;24.90;56.60;;;;;;10470847;23;20324;-78
2023/07/06 17:27:32;;;;;;;3.50;3.20;;;24.80;59.40;;;;;;10435834;28;20261;-77
2023/07/06 17:32:34;;;;;;;4.23;3.27;;;24.70;57.20;;;;;;10434022;28;20215;-77
2023/07/06 17:37:38;;;;;;;3.43;3.13;;;24.70;55.20;;;;;;10414865;28;20225;-77
2023/07/06 17:42:40;;;;;;;3.47;3.13;;;24.70;56.00;;;;;;10427793;28;20227;-78
2023/07/06 17:47:42;;;;;;;3.77;3.47;;;24.70;55.50;;;;;;10437424;28;20201;-77
2023/07/06 17:52:45;;;;;;;2.93;2.73;;;24.70;54.40;;;;;;10427838;28;20234;-76
2023/07/06 17:57:48;;;;;;;3.50;3.20;;;24.70;56.40;;;;;;10436049;28;20285;-77
2023/07/06 18:02:51;;;;;;;4.30;3.50;;;24.60;56.20;;;;;;10448165;28;20252;-78
2023/07/06 18:07:55;;;;;;;4.30;3.43;;;24.50;56.80;;;;;;10415904;28;20737;-77
2023/07/06 18:12:57;;;;;;;4.37;3.63;;;24.50;55.00;;;;;;10430260;28;20717;-78
2023/07/06 18:17:59;;;;;;;3.73;3.47;;;24.40;57.30;;;;;;10422601;28;20215;-78
2023/07/06 18:23:03;;;;;;;3.50;3.20;;;24.40;56.40;;;;;;10441862;28;20333;-78
2023/07/06 18:28:05;;;;;;;2.90;2.63;;;24.30;57.90;;;;;;10426539;28;20229;-78
2023/07/06 18:33:07;;;;;;;3.23;3.03;;;24.20;56.80;;;;;;10439160;28;20260;-78
2023/07/06 18:38:11;;;;;;;3.63;3.33;;;24.20;58.30;;;;;;10405829;28;20308;-79
2023/07/06 18:43:13;;;;;;;3.43;3.13;;;24.10;60.00;;;;;;10432074;28;20218;-78
2023/07/06 18:48:15;;;;;;;2.93;2.73;;;24.00;57.40;;;;;;10411004;28;20260;-77
2023/07/06 18:53:19;;;;;;;3.40;3.10;;;24.00;60.70;;;;;;10436225;28;20602;-79
2023/07/06 18:58:21;;;;;;;4.27;3.63;;;23.90;57.50;;;;;;10431696;28;20573;-78
2023/07/06 19:03:23;;;;;;;4.13;3.83;;;23.90;61.60;;;;;;10430253;28;20252;-77
2023/07/06 19:08:26;;;;;;;3.30;3.07;;;23.80;60.60;;;;;;10427946;28;20205;-77
2023/07/06 19:13:28;;;;;;;3.93;3.27;;;23.70;64.00;;;;;;10396892;28;20222;-78
2023/07/06 19:18:31;;;;;;;4.47;3.50;;;23.70;62.00;;;;;;10428782;28;20641;-78
2023/07/06 19:23:34;;;;;;;3.40;3.10;;;23.70;59.80;;;;;;10432936;28;20619;-75
2023/07/06 19:28:36;;;;;;;3.47;3.20;;;23.60;59.60;;;;;;10414120;28;20202;-77
2023/07/06 19:33:38;;;;;;;3.87;3.57;;;23.50;58.80;;;;;;10434975;28;20747;-77
2023/07/06 19:38:43;;;;;;;3.43;3.13;;;23.30;59.10;;;;;;10446093;28;20218;-77
2023/07/06 19:43:46;;;;;;;3.20;3.00;;;23.20;60.10;;;;;;10450015;28;20233;-78
2023/07/06 19:48:48;;;;;;;4.40;3.87;;;23.00;60.50;;;;;;10432059;28;20202;-78
2023/07/06 19:53:52;;;;;;;3.63;3.30;;;22.90;61.00;;;;;;10445763;28;20225;-78
2023/07/06 19:58:55;;;;;;;4.33;3.00;;;22.70;59.30;;;;;;10436950;28;20686;-77
2023/07/06 20:03:57;;;;;;;3.63;3.07;;;22.60;60.20;;;;;;10425361;28;20279;-78
2023/07/06 20:09:00;;;;;;;4.17;3.87;;;22.40;61.30;;;;;;10416678;28;20229;-78
2023/07/06 20:14:02;;;;;;;4.03;3.40;;;22.30;61.60;;;;;;10445690;28;20217;-78
2023/07/06 20:19:04;;;;;;;4.67;3.40;;;22.20;61.80;;;;;;10438860;28;20227;-78
2023/07/06 20:24:08;;;;;;;4.90;3.40;;;22.20;62.30;;;;;;10443513;28;20816;-78
2023/07/06 20:29:12;;;;;;;3.83;3.27;;;22.00;61.00;;;;;;10437202;28;20662;-78
2023/07/06 20:34:14;;;;;;;4.30;3.90;;;22.00;62.30;;;;;;10440481;28;20202;-78
2023/07/06 20:39:17;;;;;;;5.80;4.10;;;21.90;62.60;;;;;;10438459;28;20218;-81
2023/07/06 20:44:19;;;;;;;5.27;4.20;;;21.80;62.80;;;;;;10436941;28;20198;-77
2023/07/06 20:49:21;;;;;;;4.37;3.90;;;21.80;62.00;;;;;;10446339;28;20198;-78
2023/07/06 20:54:25;;;;;;;4.40;3.40;;;21.70;62.30;;;;;;10422407;28;20673;-77
2023/07/06 20:59:28;;;;;;;4.03;3.63;;;21.60;61.90;;;;;;10437403;28;20223;-78
2023/07/06 21:04:30;;;;;;;3.90;3.60;;;21.50;63.00;;;;;;10416787;28;20206;-77
2023/07/06 21:09:34;;;;;;;4.10;3.70;;;21.50;63.60;;;;;;10436717;28;20224;-80
2023/07/06 21:14:36;;;;;;;4.83;4.00;;;21.40;62.90;;;;;;10403895;28;20206;-78
2023/07/06 21:19:38;;;;;;;5.90;3.60;;;21.40;63.60;;;;;;10433606;28;20280;-79
2023/07/06 21:24:41;;;;;;;4.40;3.90;;;21.30;64.10;;;;;;10436812;28;20210;-79
2023/07/06 21:29:43;;;;;;;5.27;4.20;;;21.30;63.60;;;;;;10405732;28;20866;-78
2023/07/06 21:34:46;;;;;;;4.00;3.70;;;21.30;64.20;;;;;;10420605;28;20241;-79
2023/07/06 21:39:50;;;;;;;4.70;3.80;;;21.20;64.40;;;;;;10428304;28;20325;-79
2023/07/06 21:44:52;;;;;;;4.50;3.90;;;21.10;64.60;;;;;;10418186;28;20606;-79
2023/07/06 21:49:54;;;;;;;4.00;3.70;;;21.10;65.30;;;;;;10442464;28;20210;-77
2023/07/06 21:54:57;;;;;;;3.80;3.50;;;21.00;65.80;;;;;;10442609;28;20228;-79
2023/07/06 22:00:00;;;;;;;5.07;3.83;;;21.00;66.60;;;;;;10441968;28;20246;-79
2023/07/06 22:05:02;;;;;;;4.10;3.70;;;20.90;67.30;;;;;;10438566;28;20531;-79
2023/07/06 22:10:06;;;;;;;3.90;3.60;;;20.90;67.00;;;;;;10435514;28;20225;-78
2023/07/06 22:15:09;;;;;;;4.37;3.97;;;20.80;66.60;;;;;;10423577;28;20214;-78
2023/07/06 22:20:12;;;;;;;3.83;3.53;;;20.80;66.70;;;;;;10423851;28;20231;-78
2023/07/06 22:25:15;;;;;;;5.40;4.10;;;20.80;68.80;;;;;;10475475;28;20201;-78
2023/07/06 22:30:18;;;;;;;4.40;4.00;;;20.70;67.20;;;;;;10472420;28;20222;-79
2023/07/06 22:35:20;;;;;;;3.63;3.30;;;20.70;67.20;;;;;;10485484;28;20232;-79
2023/07/06 22:40:24;;;;;;;4.30;3.90;;;20.60;66.40;;;;;;10451397;28;20221;-78
2023/07/06 22:45:26;;;;;;;4.00;3.60;;;20.60;68.10;;;;;;10442112;28;20245;-79
2023/07/06 22:50:31;;;;;;;4.13;3.73;;;20.50;68.30;;;;;;10479086;28;20226;-79
2023/07/06 22:55:35;;;;;;;5.43;3.57;;;20.40;68.30;;;;;;10487142;28;20208;-78
2023/07/06 23:00:39;;;;;;;4.13;3.83;;;20.30;67.20;;;;;;10453993;28;20296;-78
2023/07/06 23:05:41;;;;;;;4.50;3.67;;;20.30;68.20;;;;;;10467442;28;20221;-77
2023/07/06 23:10:45;;;;;;;3.47;3.17;;;20.30;68.10;;;;;;10491619;28;20209;-79
2023/07/06 23:15:47;;;;;;;4.07;3.70;;;20.30;68.80;;;;;;10480392;28;20201;-78
2023/07/06 23:20:50;;;;;;;6.20;3.90;;;20.20;70.00;;;;;;10486866;22;20229;-84
2023/07/06 23:25:53;;;;;;;4.50;4.10;;;20.20;70.50;;;;;;10487588;28;20220;-85
2023/07/06 23:30:55;;;;;;;4.20;3.87;;;20.10;69.10;;;;;;10509610;28;20701;-79
2023/07/06 23:35:57;;;;;;;3.70;3.40;;;20.10;69.70;;;;;;10487414;28;20212;-82
2023/07/06 23:41:01;;;;;;;3.60;3.30;;;20.00;68.70;;;;;;10489001;28;20280;-82
2023/07/06 23:46:04;;;;;;;3.80;3.50;;;20.00;69.50;;;;;;10506565;28;20559;-83
2023/07/06 23:51:06;;;;;;;3.43;3.20;;;19.90;71.70;;;;;;10484550;28;20846;-80
2023/07/06 23:56:09;;;;;;;3.53;3.20;;;19.90;71.50;;;;;;10505721;28;20216;-82
